Time;durP1;ratioP1;P1;durP2;ratioP2;P2;SDS_P1;SDS_P2;PMS_P1;PMS_P2;Temp;Humidity;BMP_temperature;BMP_pressure;BME280_temperature;BME280_humidity;BME280_pressure;Samples;Min_cycle;Max_cycle;Signal;HPM_P1;HPM_P2
2023/12/09 00:01:14;;;;;;;;;;;;;;;-0.70;85.14;100928.58;106235;1288;67916;-59
2023/12/09 00:04:00;;;;;;;;;;;;;;;-0.71;85.05;100918.56;106213;1288;73511;-59
2023/12/09 00:06:49;;;;;;;;;;;;;;;-0.70;85.06;100918.25;106195;1289;58895;-59
2023/12/09 00:09:35;;;;;;;;;;;;;;;-0.70;85.10;100918.25;106191;1291;59428;-59
2023/12/09 00:12:20;;;;;;;;;;;;;;;-0.71;85.15;100919.91;106208;1288;73296;-59
2023/12/09 00:15:06;;;;;;;;;;;;;;;-0.71;85.13;100920.25;106232;1288;67942;-59
2023/12/09 00:17:52;;;;;;;;;;;;;;;-0.71;85.15;100922.14;106194;1288;71505;-59
2023/12/09 00:20:38;;;;;;;;;;;;;;;-0.70;85.12;100922.13;106175;1288;59298;-59
2023/12/09 00:23:24;;;;;;;;;;;;;;;-0.71;85.17;100913.31;106212;1288;59066;-59
2023/12/09 00:26:10;;;;;;;;;;;;;;;-0.70;85.12;100906.23;106164;1291;73233;-59
2023/12/09 00:28:56;;;;;;;;;;;;;;;-0.69;85.18;100911.02;106251;1293;68479;-59
2023/12/09 00:31:42;;;;;;;;;;;;;;;-0.70;85.24;100912.33;106178;1288;71191;-59
2023/12/09 00:34:28;;;;;;;;;;;;;;;-0.72;85.23;100913.80;106211;1288;59137;-59
2023/12/09 00:37:13;;;;;;;;;;;;;;;-0.72;85.19;100904.13;106054;1288;60005;-59
2023/12/09 00:39:59;;;;;;;;;;;;;;;-0.72;85.21;100898.04;106241;1288;74533;-60
2023/12/09 00:42:48;;;;;;;;;;;;;;;-0.73;85.25;100898.70;106222;1288;67161;-59
2023/12/09 00:45:34;;;;;;;;;;;;;;;-0.73;85.24;100896.30;106217;1288;70903;-59
2023/12/09 00:48:20;;;;;;;;;;;;;;;-0.73;85.28;100904.09;106202;1292;58704;-59
2023/12/09 00:51:06;;;;;;;;;;;;;;;-0.73;85.26;100905.29;106195;1292;59864;-59
2023/12/09 00:53:51;;;;;;;;;;;;;;;-0.73;85.28;100901.57;106147;1288;73175;-59
2023/12/09 00:56:37;;;;;;;;;;;;;;;-0.72;85.22;100896.70;106211;1292;68860;-59
2023/12/09 00:59:23;;;;;;;;;;;;;;;-0.72;85.25;100889.93;106204;1292;73271;-59
2023/12/09 01:02:09;;;;;;;;;;;;;;;-0.72;85.26;100888.75;106238;1288;58745;-59
2023/12/09 01:04:55;;;;;;;;;;;;;;;-0.71;85.20;100895.38;106184;1288;59868;-60
2023/12/09 01:07:40;;;;;;;;;;;;;;;-0.71;85.27;100899.10;106231;1288;73290;-59
2023/12/09 01:10:26;;;;;;;;;;;;;;;-0.69;85.28;100895.42;106163;1288;67301;-59
2023/12/09 01:13:12;;;;;;;;;;;;;;;-0.68;85.31;100899.71;106201;1292;73223;-60
2023/12/09 01:15:58;;;;;;;;;;;;;;;-0.70;85.25;100900.66;106213;1292;58283;-59
2023/12/09 01:18:44;;;;;;;;;;;;;;;-0.71;85.28;100900.10;106181;1289;59195;-59
2023/12/09 01:21:30;;;;;;;;;;;;;;;-0.70;85.27;100892.02;106194;1290;74715;-59
2023/12/09 01:24:16;;;;;;;;;;;;;;;-0.70;85.31;100889.98;106218;1290;68008;-60
2023/12/09 01:27:02;;;;;;;;;;;;;;;-0.71;85.26;100886.56;106237;1289;71245;-60
2023/12/09 01:29:48;;;;;;;;;;;;;;;-0.72;85.31;100885.52;106199;1288;58961;-60
2023/12/09 01:32:33;;;;;;;;;;;;;;;-0.73;85.34;100881.27;106215;1288;59019;-60
2023/12/09 01:35:19;;;;;;;;;;;;;;;-0.71;85.39;100878.95;106183;1289;74609;-59
2023/12/09 01:38:05;;;;;;;;;;;;;;;-0.71;85.27;100877.95;106209;1288;68061;-60
2023/12/09 01:40:52;;;;;;;;;;;;;;;-0.70;85.28;100878.66;106217;1288;71288;-60
2023/12/09 01:43:38;;;;;;;;;;;;;;;-0.69;85.29;100880.20;106101;1292;64361;-59
2023/12/09 01:46:24;;;;;;;;;;;;;;;-0.68;85.38;100881.23;104916;1288;59358;-58
2023/12/09 01:49:11;;;;;;;;;;;;;;;-0.69;85.43;100876.14;104955;1288;73206;-59
2023/12/09 01:51:58;;;;;;;;;;;;;;;-0.70;85.38;100877.27;104836;1288;67064;-59
2023/12/09 01:54:44;;;;;;;;;;;;;;;-0.71;85.38;100881.16;104868;1288;71186;-59
2023/12/09 01:57:30;;;;;;;;;;;;;;;-0.71;85.43;100881.65;104879;1293;61144;-59
2023/12/09 02:00:17;;;;;;;;;;;;;;;-0.73;85.35;100880.38;104896;1288;61152;-60
2023/12/09 02:03:04;;;;;;;;;;;;;;;-0.74;85.38;100879.38;104913;1293;73655;-58
2023/12/09 02:05:50;;;;;;;;;;;;;;;-0.75;85.32;100879.16;104923;1290;67260;-59
2023/12/09 02:08:38;;;;;;;;;;;;;;;-0.77;85.41;100870.97;104884;1287;71139;-58
2023/12/09 02:11:31;;;;;;;;;;;;;;;-0.79;85.46;100870.54;104919;1292;61237;-59
2023/12/09 02:14:26;;;;;;;;;;;;;;;-0.80;85.39;100870.67;106246;1288;59303;-59
2023/12/09 02:17:38;;;;;;;;;;;;;;;-0.82;85.50;100868.42;106194;1288;73455;-60
2023/12/09 02:20:25;;;;;;;;;;;;;;;-0.82;85.45;100865.22;106266;1292;68064;-59
2023/12/09 02:23:12;;;;;;;;;;;;;;;-0.80;85.44;100861.71;106196;1291;71128;-60
2023/12/09 02:26:03;;;;;;;;;;;;;;;-0.80;85.45;100859.36;105284;1289;61202;-59
2023/12/09 02:28:52;;;;;;;;;;;;;;;-0.79;85.35;100862.95;104901;1292;59286;-59
2023/12/09 02:31:39;;;;;;;;;;;;;;;-0.77;85.48;100860.27;104950;1292;73311;-59
2023/12/09 02:34:25;;;;;;;;;;;;;;;-0.78;85.49;100857.73;104923;1288;69952;-58
2023/12/09 02:37:11;;;;;;;;;;;;;;;-0.80;85.43;100850.90;104902;1292;71066;-59
2023/12/09 02:39:59;;;;;;;;;;;;;;;-0.80;85.46;100850.89;104948;1292;61245;-59
2023/12/09 02:42:47;;;;;;;;;;;;;;;-0.80;85.42;100849.52;97626;1289;10002269;-59
2023/12/09 02:45:32;;;;;;;;;;;;;;;-0.81;85.48;100853.56;106235;1289;68328;-59
2023/12/09 02:48:19;;;;;;;;;;;;;;;-0.80;85.54;100858.16;104909;1289;73981;-58
2023/12/09 02:51:05;;;;;;;;;;;;;;;-0.80;85.47;100856.98;104914;1288;61191;-59
2023/12/09 02:53:52;;;;;;;;;;;;;;;-0.81;85.51;100853.74;104953;1289;59648;-59
2023/12/09 02:56:38;;;;;;;;;;;;;;;-0.80;85.43;100849.86;104943;1286;73406;-58
2023/12/09 02:59:24;;;;;;;;;;;;;;;-0.80;85.43;100855.80;104948;1292;70893;-58
2023/12/09 03:02:10;;;;;;;;;;;;;;;-0.80;85.45;100854.95;104905;1293;72143;-59
2023/12/09 03:04:57;;;;;;;;;;;;;;;-0.80;85.43;100857.30;104938;1289;61280;-59
2023/12/09 03:07:44;;;;;;;;;;;;;;;-0.80;85.43;100855.96;104957;1292;59893;-59
2023/12/09 03:10:30;;;;;;;;;;;;;;;-0.79;85.52;100853.45;104894;1289;75851;-58
2023/12/09 03:13:16;;;;;;;;;;;;;;;-0.80;85.51;100846.30;104766;1295;70125;-59
2023/12/09 03:16:03;;;;;;;;;;;;;;;-0.81;85.61;100849.69;104886;1289;73984;-59
2023/12/09 03:18:50;;;;;;;;;;;;;;;-0.81;85.73;100848.64;104942;1289;61312;-59
2023/12/09 03:21:36;;;;;;;;;;;;;;;-0.81;85.64;100845.43;104923;1288;61373;-59
2023/12/09 03:24:22;;;;;;;;;;;;;;;-0.79;85.50;100847.02;104930;1292;73120;-58
2023/12/09 03:27:08;;;;;;;;;;;;;;;-0.78;85.64;100850.77;104940;1288;67226;-59
2023/12/09 03:29:54;;;;;;;;;;;;;;;-0.78;85.61;100847.56;104897;1290;71913;-59
2023/12/09 03:32:41;;;;;;;;;;;;;;;-0.79;85.85;100850.06;104924;1288;61044;-59
2023/12/09 03:35:27;;;;;;;;;;;;;;;-0.81;85.67;100848.15;104906;1288;61151;-57
2023/12/09 03:38:13;;;;;;;;;;;;;;;-0.82;85.68;100842.02;104896;1293;73422;-59
2023/12/09 03:40:59;;;;;;;;;;;;;;;-0.83;85.74;100840.28;104950;1291;67279;-59
2023/12/09 03:43:45;;;;;;;;;;;;;;;-0.84;85.74;100840.23;104933;1289;71327;-59
2023/12/09 03:46:31;;;;;;;;;;;;;;;-0.86;85.88;100833.08;104910;1289;61268;-58
2023/12/09 03:49:17;;;;;;;;;;;;;;;-0.88;85.95;100832.83;104943;1288;60078;-59
2023/12/09 03:52:04;;;;;;;;;;;;;;;-0.89;85.95;100838.20;104899;1289;75241;-59
2023/12/09 03:54:50;;;;;;;;;;;;;;;-0.91;85.96;100831.05;105016;1290;71454;-59
2023/12/09 03:57:36;;;;;;;;;;;;;;;-0.91;86.14;100829.20;104907;1292;71628;-59
2023/12/09 04:00:22;;;;;;;;;;;;;;;-0.91;86.02;100834.77;104957;1288;61272;-58
2023/12/09 04:03:08;;;;;;;;;;;;;;;-0.91;85.85;100835.63;104942;1289;61177;-58
2023/12/09 04:05:55;;;;;;;;;;;;;;;-0.90;85.89;100835.99;104894;1291;73377;-58
2023/12/09 04:08:41;;;;;;;;;;;;;;;-0.89;85.91;100833.67;104936;1290;68591;-58
2023/12/09 04:11:27;;;;;;;;;;;;;;;-0.88;86.20;100834.70;104900;1291;71083;-59
2023/12/09 04:14:13;;;;;;;;;;;;;;;-0.88;86.45;100832.02;104965;1289;61412;-59
2023/12/09 04:16:59;;;;;;;;;;;;;;;-0.88;86.23;100833.53;104929;1288;63035;-59
2023/12/09 04:19:45;;;;;;;;;;;;;;;-0.87;86.14;100833.73;104943;1288;75935;-58
2023/12/09 04:22:31;;;;;;;;;;;;;;;-0.86;85.93;100834.79;104905;1292;69801;-59
2023/12/09 04:25:18;;;;;;;;;;;;;;;-0.84;86.02;100841.96;104991;1291;71250;-59
2023/12/09 04:28:04;;;;;;;;;;;;;;;-0.83;85.87;100848.92;105001;1288;61253;-58
2023/12/09 04:30:50;;;;;;;;;;;;;;;-0.82;86.19;100848.98;104909;1290;61206;-59
2023/12/09 04:33:37;;;;;;;;;;;;;;;-0.82;86.06;100846.95;104941;1288;73679;-60
2023/12/09 04:36:24;;;;;;;;;;;;;;;-0.81;86.03;100848.30;101990;1289;5005102;-60
2023/12/09 04:39:10;;;;;;;;;;;;;;;-0.81;86.07;100847.46;105761;1288;71881;-59
2023/12/09 04:41:56;;;;;;;;;;;;;;;-0.81;86.05;100837.98;104960;1288;62822;-59
2023/12/09 04:44:42;;;;;;;;;;;;;;;-0.81;86.07;100834.92;105331;1293;59170;-59
2023/12/09 04:47:29;;;;;;;;;;;;;;;-0.82;86.19;100836.11;104933;1288;73083;-59
2023/12/09 04:50:15;;;;;;;;;;;;;;;-0.83;86.22;100839.95;104932;1292;70834;-59
2023/12/09 04:53:01;;;;;;;;;;;;;;;-0.83;86.37;100835.88;104908;1288;71383;-58
2023/12/09 04:55:47;;;;;;;;;;;;;;;-0.84;86.25;100834.83;104931;1288;61427;-59
2023/12/09 04:58:34;;;;;;;;;;;;;;;-0.86;86.18;100835.80;104956;1292;61183;-59
2023/12/09 05:01:21;;;;;;;;;;;;;;;-0.87;86.38;100835.92;104937;1288;77361;-59
2023/12/09 05:04:08;;;;;;;;;;;;;;;-0.88;86.22;100836.58;104936;1288;71416;-60
2023/12/09 05:06:54;;;;;;;;;;;;;;;-0.89;86.36;100835.17;104974;1288;71279;-58
2023/12/09 05:09:40;;;;;;;;;;;;;;;-0.91;86.33;100832.91;104930;1290;61061;-58
2023/12/09 05:12:27;;;;;;;;;;;;;;;-0.93;86.17;100832.69;104911;1288;61162;-59
2023/12/09 05:15:13;;;;;;;;;;;;;;;-0.95;86.44;100832.27;104791;1291;75254;-59
2023/12/09 05:17:59;;;;;;;;;;;;;;;-0.97;86.55;100834.59;104901;1288;68028;-59
2023/12/09 05:20:46;;;;;;;;;;;;;;;-0.98;86.65;100833.85;104932;1287;72583;-59
2023/12/09 05:23:32;;;;;;;;;;;;;;;-0.98;86.53;100833.52;104953;1288;61250;-58
2023/12/09 05:26:21;;;;;;;;;;;;;;;-0.98;86.63;100831.14;104934;1288;61924;-59
2023/12/09 05:29:08;;;;;;;;;;;;;;;-0.98;86.37;100835.20;104944;1288;73802;-59
2023/12/09 05:31:54;;;;;;;;;;;;;;;-0.99;86.63;100834.48;104923;1288;67206;-60
2023/12/09 05:34:40;;;;;;;;;;;;;;;-1.01;86.64;100835.13;104965;1288;70293;-60
2023/12/09 05:37:26;;;;;;;;;;;;;;;-1.01;86.56;100836.66;104995;1287;61622;-58
2023/12/09 05:40:12;;;;;;;;;;;;;;;-1.01;86.64;100835.63;104908;1288;61166;-59
2023/12/09 05:42:58;;;;;;;;;;;;;;;-0.99;86.68;100838.73;104964;1292;76048;-58
2023/12/09 05:45:45;;;;;;;;;;;;;;;-0.97;86.72;100842.48;104938;1288;71338;-59
2023/12/09 05:48:31;;;;;;;;;;;;;;;-0.98;86.93;100842.80;104882;1288;71255;-59
2023/12/09 05:51:17;;;;;;;;;;;;;;;-0.99;86.84;100844.33;104994;1288;61910;-58
2023/12/09 05:54:03;;;;;;;;;;;;;;;-0.97;86.89;100846.23;105016;1288;61131;-58
2023/12/09 05:56:50;;;;;;;;;;;;;;;-0.97;86.94;100845.06;104935;1289;74671;-59
2023/12/09 05:59:36;;;;;;;;;;;;;;;-0.96;87.05;100844.40;104875;1290;67192;-59
2023/12/09 06:02:22;;;;;;;;;;;;;;;-0.94;87.05;100843.30;104906;1288;72330;-59
2023/12/09 06:05:09;;;;;;;;;;;;;;;-0.92;86.91;100840.83;104981;1288;61367;-58
2023/12/09 06:07:55;;;;;;;;;;;;;;;-0.90;86.80;100839.86;104996;1288;61371;-59
2023/12/09 06:10:41;;;;;;;;;;;;;;;-0.89;86.85;100839.08;104896;1289;76067;-58
2023/12/09 06:13:27;;;;;;;;;;;;;;;-0.87;86.95;100839.30;104939;1288;70051;-59
2023/12/09 06:16:18;;;;;;;;;;;;;;;-0.86;86.99;100837.15;104929;1292;73929;-59
2023/12/09 06:19:04;;;;;;;;;;;;;;;-0.84;87.17;100835.69;105007;1288;61215;-59
2023/12/09 06:21:50;;;;;;;;;;;;;;;-0.82;86.88;100836.94;104915;1294;61737;-59
2023/12/09 06:24:36;;;;;;;;;;;;;;;-0.81;87.00;100830.22;104921;1288;72173;-59
2023/12/09 06:27:24;;;;;;;;;;;;;;;-0.79;87.13;100830.61;104960;1288;67678;-59
2023/12/09 06:30:11;;;;;;;;;;;;;;;-0.77;87.22;100830.17;104900;1288;72435;-59
2023/12/09 06:32:57;;;;;;;;;;;;;;;-0.74;87.11;100827.56;104912;1288;61233;-59
2023/12/09 06:35:43;;;;;;;;;;;;;;;-0.72;87.13;100831.52;104952;1288;61166;-58
2023/12/09 06:38:29;;;;;;;;;;;;;;;-0.71;87.27;100828.52;104914;1288;72215;-59
2023/12/09 06:41:16;;;;;;;;;;;;;;;-0.69;87.17;100831.11;104908;1288;69135;-59
2023/12/09 06:44:02;;;;;;;;;;;;;;;-0.66;87.14;100827.30;104955;1288;72466;-58
2023/12/09 06:46:48;;;;;;;;;;;;;;;-0.64;87.33;100827.86;104943;1288;61187;-59
2023/12/09 06:49:34;;;;;;;;;;;;;;;-0.63;87.29;100827.08;104943;1288;60413;-59
2023/12/09 06:52:20;;;;;;;;;;;;;;;-0.61;87.35;100823.73;104928;1288;73298;-59
2023/12/09 06:55:07;;;;;;;;;;;;;;;-0.60;87.24;100820.23;104905;1292;67275;-60
2023/12/09 06:57:53;;;;;;;;;;;;;;;-0.58;87.23;100819.77;106150;1288;73620;-59
2023/12/09 07:00:39;;;;;;;;;;;;;;;-0.55;87.30;100819.02;104894;1288;61273;-59
2023/12/09 07:03:25;;;;;;;;;;;;;;;-0.52;87.22;100823.00;104915;1292;61045;-59
2023/12/09 07:06:11;;;;;;;;;;;;;;;-0.50;87.22;100826.63;104953;1288;73236;-59
2023/12/09 07:08:57;;;;;;;;;;;;;;;-0.48;87.18;100822.11;104948;1291;68347;-59
2023/12/09 07:11:43;;;;;;;;;;;;;;;-0.46;87.22;100820.30;104916;1288;71937;-59
2023/12/09 07:14:29;;;;;;;;;;;;;;;-0.44;87.35;100819.88;104894;1290;60214;-59
2023/12/09 07:17:16;;;;;;;;;;;;;;;-0.43;87.41;100817.70;104985;1288;61280;-59
2023/12/09 07:20:05;;;;;;;;;;;;;;;-0.41;87.39;100821.66;104940;1288;75498;-60
2023/12/09 07:22:51;;;;;;;;;;;;;;;-0.39;87.55;100821.04;104939;1288;67217;-59
2023/12/09 07:25:38;;;;;;;;;;;;;;;-0.38;87.63;100817.18;104883;1288;75293;-60
2023/12/09 07:28:24;;;;;;;;;;;;;;;-0.37;87.51;100817.05;104920;1291;61138;-58
2023/12/09 07:31:10;;;;;;;;;;;;;;;-0.36;87.41;100810.46;104881;1292;61290;-60
2023/12/09 07:33:57;;;;;;;;;;;;;;;-0.36;87.62;100813.02;104771;1288;73531;-59
2023/12/09 07:36:43;;;;;;;;;;;;;;;-0.34;87.76;100810.71;104847;1288;67471;-60
2023/12/09 07:39:29;;;;;;;;;;;;;;;-0.32;87.63;100812.98;104961;1288;71362;-60
2023/12/09 07:42:15;;;;;;;;;;;;;;;-0.30;87.66;100809.45;104899;1288;61267;-59
2023/12/09 07:45:01;;;;;;;;;;;;;;;-0.29;87.68;100810.35;104849;1290;61192;-60
2023/12/09 07:47:47;;;;;;;;;;;;;;;-0.27;87.74;100810.74;104866;1289;73263;-60
2023/12/09 07:50:34;;;;;;;;;;;;;;;-0.25;87.72;100808.10;104911;1288;69898;-59
2023/12/09 07:53:21;;;;;;;;;;;;;;;-0.23;87.97;100808.50;104896;1293;71997;-60
2023/12/09 07:56:07;;;;;;;;;;;;;;;-0.22;87.66;100802.60;104901;1288;61038;-60
2023/12/09 07:58:53;;;;;;;;;;;;;;;-0.20;87.76;100802.50;104868;1289;61965;-59
2023/12/09 08:01:40;;;;;;;;;;;;;;;-0.17;87.77;100801.59;104864;1288;75208;-60
2023/12/09 08:04:26;;;;;;;;;;;;;;;-0.15;87.92;100798.41;106221;1288;67394;-59
2023/12/09 08:07:12;;;;;;;;;;;;;;;-0.13;87.85;100794.92;106202;1288;72349;-61
2023/12/09 08:09:58;;;;;;;;;;;;;;;-0.10;87.74;100792.14;106109;1288;59356;-61
2023/12/09 08:12:44;;;;;;;;;;;;;;;-0.06;87.85;100791.91;106202;1288;60702;-60
2023/12/09 08:15:29;;;;;;;;;;;;;;;-0.02;87.85;100787.80;106179;1288;75333;-60
2023/12/09 08:18:16;;;;;;;;;;;;;;;0.01;87.76;100786.67;106163;1288;67334;-60
2023/12/09 08:21:02;;;;;;;;;;;;;;;0.06;87.81;100785.79;106201;1288;71208;-61
2023/12/09 08:23:48;;;;;;;;;;;;;;;0.11;87.81;100789.84;106184;1288;59018;-61
2023/12/09 08:26:34;;;;;;;;;;;;;;;0.14;87.74;100796.02;106234;1288;59108;-61
2023/12/09 08:29:21;;;;;;;;;;;;;;;0.17;87.70;100788.98;106250;1289;73729;-61
2023/12/09 08:32:09;;;;;;;;;;;;;;;0.21;87.95;100787.25;106206;1286;67287;-60
2023/12/09 08:34:55;;;;;;;;;;;;;;;0.23;87.86;100784.44;106185;1288;71726;-60
2023/12/09 08:37:40;;;;;;;;;;;;;;;0.27;87.98;100778.59;106206;1287;58972;-61
2023/12/09 08:40:26;;;;;;;;;;;;;;;0.30;87.98;100781.06;106219;1288;59334;-60
2023/12/09 08:43:12;;;;;;;;;;;;;;;0.33;88.05;100785.91;106075;1287;74500;-60
2023/12/09 08:45:58;;;;;;;;;;;;;;;0.37;87.96;100781.77;106249;1287;66554;-60
2023/12/09 08:48:44;;;;;;;;;;;;;;;0.40;88.02;100786.95;106250;1288;72407;-60
2023/12/09 08:51:30;;;;;;;;;;;;;;;0.42;88.01;100788.69;106197;1289;58986;-60
2023/12/09 08:54:16;;;;;;;;;;;;;;;0.46;88.08;100790.66;106252;1288;59881;-60
2023/12/09 08:57:02;;;;;;;;;;;;;;;0.48;88.37;100792.93;106230;1286;73768;-60
2023/12/09 08:59:48;;;;;;;;;;;;;;;0.49;88.14;100793.64;106234;1292;67566;-60
2023/12/09 09:02:34;;;;;;;;;;;;;;;0.51;88.03;100795.73;106224;1288;72446;-60
2023/12/09 09:05:20;;;;;;;;;;;;;;;0.52;88.24;100801.66;106184;1288;60138;-60
2023/12/09 09:08:06;;;;;;;;;;;;;;;0.55;88.21;100803.59;106257;1287;59870;-60
2023/12/09 09:10:52;;;;;;;;;;;;;;;0.57;88.11;100802.30;106294;1287;74598;-60
2023/12/09 09:13:38;;;;;;;;;;;;;;;0.59;88.07;100797.10;106283;1288;67379;-60
2023/12/09 09:16:26;;;;;;;;;;;;;;;0.61;88.12;100789.86;106108;1287;73006;-60
2023/12/09 09:19:11;;;;;;;;;;;;;;;0.64;88.24;100786.88;106209;1288;59089;-60
2023/12/09 09:21:57;;;;;;;;;;;;;;;0.66;88.22;100784.05;106235;1288;59944;-60
2023/12/09 09:24:46;;;;;;;;;;;;;;;0.68;88.62;100780.55;106191;1287;73501;-60
2023/12/09 09:27:32;;;;;;;;;;;;;;;0.68;88.50;100781.91;106187;1288;67335;-55
2023/12/09 09:30:23;;;;;;;;;;;;;;;0.71;88.31;100775.70;106183;1288;73014;-56
2023/12/09 09:33:09;;;;;;;;;;;;;;;0.72;88.47;100773.36;106171;1288;59359;-57
2023/12/09 09:35:55;;;;;;;;;;;;;;;0.74;88.40;100770.86;106213;1287;59245;-57
2023/12/09 09:38:41;;;;;;;;;;;;;;;0.74;88.70;100764.26;106193;1288;73855;-57
2023/12/09 09:41:46;;;;;;;;;;;;;;;0.74;90.38;100761.36;106299;1286;68059;-57
2023/12/09 09:44:33;;;;;;;;;;;;;;;0.71;89.28;100753.99;106269;1287;70865;-58
2023/12/09 09:47:21;;;;;;;;;;;;;;;0.73;89.50;100753.70;106251;1288;59400;-56
2023/12/09 09:50:26;;;;;;;;;;;;;;;0.76;88.97;100752.92;47382;1286;20059505;-57
2023/12/09 09:53:13;;;;;;;;;;;;;;;0.78;89.03;100749.95;106227;1288;68620;-57
2023/12/09 09:55:59;;;;;;;;;;;;;;;0.80;88.98;100746.23;106209;1288;72191;-56
2023/12/09 09:58:45;;;;;;;;;;;;;;;0.82;88.94;100741.54;105988;1288;58997;-57
2023/12/09 10:01:32;;;;;;;;;;;;;;;0.83;89.42;100737.00;106293;1288;59320;-57
2023/12/09 10:04:18;;;;;;;;;;;;;;;0.83;89.20;100726.83;106216;1286;73380;-58
2023/12/09 10:07:04;;;;;;;;;;;;;;;0.86;89.20;100719.27;106267;1290;67419;-57
2023/12/09 10:09:49;;;;;;;;;;;;;;;0.88;89.04;100715.42;106199;1288;72054;-57
2023/12/09 10:12:36;;;;;;;;;;;;;;;0.90;88.98;100711.72;106136;1288;59071;-58
2023/12/09 10:15:21;;;;;;;;;;;;;;;0.93;89.01;100717.23;106216;1288;58846;-57
2023/12/09 10:18:11;;;;;;;;;;;;;;;0.95;89.00;100717.45;106177;1286;73311;-58
2023/12/09 10:20:57;;;;;;;;;;;;;;;0.97;88.89;100715.81;106220;1289;67423;-58
2023/12/09 10:23:46;;;;;;;;;;;;;;;1.00;89.42;100712.48;106198;1288;71213;-58
2023/12/09 10:26:32;;;;;;;;;;;;;;;1.01;89.17;100706.73;106208;1288;59158;-58
2023/12/09 10:29:18;;;;;;;;;;;;;;;1.00;89.23;100702.30;106188;1288;59293;-59
2023/12/09 10:32:04;;;;;;;;;;;;;;;1.02;89.23;100703.35;32517;1289;10003466;-59
2023/12/09 10:34:50;;;;;;;;;;;;;;;1.03;89.44;100692.34;106239;1286;58947;-58
2023/12/09 10:37:36;;;;;;;;;;;;;;;1.05;89.59;100692.70;106223;1288;59791;-58
2023/12/09 10:40:22;;;;;;;;;;;;;;;1.04;89.77;100687.27;106178;1290;73130;-58
2023/12/09 10:43:08;;;;;;;;;;;;;;;1.08;89.55;100687.52;106269;1288;68844;-58
2023/12/09 10:45:54;;;;;;;;;;;;;;;1.10;89.43;100684.84;106296;1287;70769;-59
2023/12/09 10:48:41;;;;;;;;;;;;;;;1.12;89.35;100688.80;106315;1288;59642;-58
2023/12/09 10:51:27;;;;;;;;;;;;;;;1.14;89.55;100683.23;105426;1288;61387;-57
2023/12/09 10:54:13;;;;;;;;;;;;;;;1.15;89.31;100681.06;105071;1287;74087;-58
2023/12/09 10:57:00;;;;;;;;;;;;;;;1.18;89.38;100680.80;105115;1289;67982;-58
2023/12/09 10:59:46;;;;;;;;;;;;;;;1.21;89.58;100676.61;104850;1288;72651;-58
2023/12/09 11:02:32;;;;;;;;;;;;;;;1.19;89.70;100678.95;105015;1288;61659;-57
2023/12/09 11:05:19;;;;;;;;;;;;;;;1.21;89.49;100677.80;104910;1288;61281;-57
2023/12/09 11:08:08;;;;;;;;;;;;;;;1.25;89.57;100675.52;104661;1288;315169;-57
2023/12/09 11:11:02;;;;;;;;;;;;;;;1.26;89.45;100670.95;104747;1288;68061;-58
2023/12/09 11:13:48;;;;;;;;;;;;;;;1.28;89.45;100673.05;104882;1288;71264;-57
2023/12/09 11:16:34;;;;;;;;;;;;;;;1.31;89.82;100672.95;104846;1288;62961;-58
2023/12/09 11:19:22;;;;;;;;;;;;;;;1.27;91.88;100671.31;101149;1291;5003549;-58
2023/12/09 11:22:12;;;;;;;;;;;;;;;1.28;90.34;100668.28;104861;1288;73031;-58
2023/12/09 11:24:59;;;;;;;;;;;;;;;1.32;90.07;100668.70;104896;1289;69883;-58
2023/12/09 11:27:48;;;;;;;;;;;;;;;1.35;90.03;100671.49;104910;1288;73960;-58
2023/12/09 11:30:36;;;;;;;;;;;;;;;1.34;89.90;100668.58;104902;1288;61230;-58
2023/12/09 11:33:23;;;;;;;;;;;;;;;1.36;89.93;100672.19;105003;1288;61245;-58
2023/12/09 11:36:09;;;;;;;;;;;;;;;1.38;89.94;100675.30;104913;1288;73135;-57
2023/12/09 11:38:55;;;;;;;;;;;;;;;1.37;90.03;100665.92;104853;1288;71364;-57
2023/12/09 11:41:42;;;;;;;;;;;;;;;1.38;89.82;100658.81;104921;1288;74055;-56
2023/12/09 11:44:29;;;;;;;;;;;;;;;1.39;89.81;100654.42;104984;1288;61383;-57
2023/12/09 11:47:17;;;;;;;;;;;;;;;1.40;89.68;100652.23;104925;1289;62584;-55
2023/12/09 11:50:03;;;;;;;;;;;;;;;1.40;89.75;100649.87;104894;1289;73269;-57
2023/12/09 11:52:51;;;;;;;;;;;;;;;1.44;89.79;100648.25;104911;1288;66471;-57
2023/12/09 11:55:37;;;;;;;;;;;;;;;1.44;89.71;100648.43;104925;1288;70204;-58
2023/12/09 11:58:24;;;;;;;;;;;;;;;1.45;89.74;100643.53;104872;1288;61270;-58
2023/12/09 12:01:10;;;;;;;;;;;;;;;1.47;89.64;100643.06;104874;1291;61287;-58
2023/12/09 12:03:56;;;;;;;;;;;;;;;1.47;89.55;100640.69;104954;1289;77408;-58
2023/12/09 12:06:42;;;;;;;;;;;;;;;1.50;89.62;100633.61;104977;1288;69476;-59
2023/12/09 12:09:28;;;;;;;;;;;;;;;1.53;89.73;100626.02;104837;1293;75843;-58
2023/12/09 12:12:14;;;;;;;;;;;;;;;1.56;89.73;100623.53;104889;1288;62066;-58
2023/12/09 12:15:01;;;;;;;;;;;;;;;1.59;89.80;100623.58;104977;1288;61241;-58
2023/12/09 12:17:48;;;;;;;;;;;;;;;1.60;89.69;100625.29;104997;1288;74126;-58
2023/12/09 12:20:34;;;;;;;;;;;;;;;1.60;89.59;100622.40;104977;1287;67281;-58
2023/12/09 12:23:21;;;;;;;;;;;;;;;1.61;89.61;100617.83;105030;1289;71254;-58
2023/12/09 12:26:08;;;;;;;;;;;;;;;1.61;89.71;100616.31;105017;1290;62213;-58
2023/12/09 12:28:54;;;;;;;;;;;;;;;1.61;89.78;100611.91;105025;1289;61916;-56
2023/12/09 12:31:40;;;;;;;;;;;;;;;1.62;89.74;100612.27;104987;1291;74178;-58
2023/12/09 12:34:27;;;;;;;;;;;;;;;1.64;89.79;100607.53;104968;1289;67482;-58
2023/12/09 12:37:13;;;;;;;;;;;;;;;1.63;89.70;100605.48;104938;1290;73052;-59
2023/12/09 12:39:59;;;;;;;;;;;;;;;1.64;89.72;100606.19;104958;1288;62325;-58
2023/12/09 12:42:45;;;;;;;;;;;;;;;1.63;89.67;100607.85;105001;1291;59172;-58
2023/12/09 12:45:32;;;;;;;;;;;;;;;1.60;89.66;100607.45;104987;1288;73170;-58
2023/12/09 12:48:19;;;;;;;;;;;;;;;1.59;89.70;100603.53;104980;1288;67814;-58
2023/12/09 12:51:05;;;;;;;;;;;;;;;1.57;89.79;100599.06;105022;1292;71215;-57
2023/12/09 12:53:51;;;;;;;;;;;;;;;1.58;89.80;100593.65;104934;1288;61299;-55
2023/12/09 12:56:38;;;;;;;;;;;;;;;1.57;89.74;100589.72;104903;1289;59303;-58
2023/12/09 12:59:24;;;;;;;;;;;;;;;1.57;89.68;100589.04;104933;1288;73275;-59
2023/12/09 13:02:10;;;;;;;;;;;;;;;1.57;89.83;100583.77;104941;1292;71206;-59
2023/12/09 13:04:57;;;;;;;;;;;;;;;1.57;89.76;100578.86;104957;1288;77353;-55
2023/12/09 13:07:44;;;;;;;;;;;;;;;1.57;89.75;100578.17;104795;1288;61194;-58
2023/12/09 13:10:30;;;;;;;;;;;;;;;1.58;89.76;100572.08;104911;1288;61175;-54
2023/12/09 13:13:16;;;;;;;;;;;;;;;1.59;89.82;100566.83;104866;1288;74087;-59
2023/12/09 13:16:03;;;;;;;;;;;;;;;1.60;89.87;100566.67;104932;1288;69108;-56
2023/12/09 13:18:49;;;;;;;;;;;;;;;1.60;89.83;100562.95;104879;1291;72408;-58
2023/12/09 13:21:36;;;;;;;;;;;;;;;1.60;89.88;100562.61;104897;1288;61266;-58
2023/12/09 13:24:22;;;;;;;;;;;;;;;1.61;89.90;100558.05;106292;1288;59285;-57
2023/12/09 13:27:08;;;;;;;;;;;;;;;1.61;89.74;100557.19;106264;1287;73394;-59
2023/12/09 13:29:54;;;;;;;;;;;;;;;1.59;89.75;100550.20;106273;1287;66244;-59
2023/12/09 13:32:40;;;;;;;;;;;;;;;1.60;89.81;100548.67;106189;1287;72464;-59
2023/12/09 13:35:26;;;;;;;;;;;;;;;1.62;89.76;100544.80;105410;1290;61412;-59
2023/12/09 13:38:13;;;;;;;;;;;;;;;1.62;89.77;100540.55;104534;1288;62349;-58
2023/12/09 13:40:59;;;;;;;;;;;;;;;1.63;89.83;100538.70;104843;1287;75944;-57
2023/12/09 13:43:46;;;;;;;;;;;;;;;1.63;89.85;100541.77;104901;1288;69172;-58
2023/12/09 13:46:32;;;;;;;;;;;;;;;1.62;89.80;100534.77;104825;1293;71387;-57
2023/12/09 13:49:18;;;;;;;;;;;;;;;1.58;89.76;100531.82;104953;1288;61828;-59
2023/12/09 13:52:05;;;;;;;;;;;;;;;1.54;89.71;100524.46;104900;1288;62130;-58
2023/12/09 13:54:51;;;;;;;;;;;;;;;1.49;89.74;100524.20;104943;1287;74550;-60
2023/12/09 13:57:37;;;;;;;;;;;;;;;1.47;89.80;100526.03;104887;1291;67731;-59
2023/12/09 14:00:24;;;;;;;;;;;;;;;1.45;89.77;100527.86;104939;1288;71415;-58
2023/12/09 14:03:10;;;;;;;;;;;;;;;1.43;89.79;100527.65;104906;1289;62075;-58
2023/12/09 14:05:56;;;;;;;;;;;;;;;1.41;89.76;100523.70;104929;1288;59877;-58
2023/12/09 14:08:42;;;;;;;;;;;;;;;1.39;89.79;100526.89;104965;1288;74358;-59